Terminal Aerodrome Forecast
Issued by NWS Boston, MA

Home | Current Version | Previous Version | Text Only | Print | Product List | Glossary On
Versions: 1 2 3 4 5 6 7 8 9 10 11 12 13 14 15 16 17 18 19 20 21 22 23 24 25 26 27 28 29 30 31 32 33 34 35 36 37 38 39 40 41 42 43 44 45 46 47 48
826
FTUS41 KBOX 231319 AAA
TAFBDL
TAF AMD
KBDL 231319Z 2313/2418 01006KT P6SM SCT015 BKN150
     FM231500 12004KT P6SM BKN015
     FM232000 16006KT 6SM -RA BR OVC015
     FM232100 16006KT 2SM -RA BR OVC008
     FM240300 18005KT 3SM BR OVC015
     FM240900 22004KT P6SM BKN050
     FM241300 28004KT P6SM BKN150=

USA.gov is the U.S. government's official web portal to all federal, state and local government web resources and services.